This is the latest recevied weather packets stored in our database for station/object KI5GCD-13. If no packets are shown the sender has not sent any weather packets the latest 1 day(s).
| Time | Temp. | Humidity | Pressure | Rain* | Wind** | Luminosity | Snow |
|---|---|---|---|---|---|---|---|
| 1778077187 | 9.44° C | 81% | 1013.5 hPa | 0 mm | 0.89 m/s, 241° | - | - |
| 1778076887 | 9.44° C | 82% | 1013.6 hPa | 0 mm | 0.45 m/s, 92° | - | - |
| 1778075088 | 9.44° C | 85% | 1013.6 hPa | 0 mm | 2.68 m/s, 75° | - | - |
| 1778074188 | 8.89° C | 85% | 1013.5 hPa | 0 mm | 0.89 m/s, 174° | - | - |
| 1778072387 | 8.89° C | 87% | 1012.9 hPa | 0 mm | 1.34 m/s, 53° | - | - |
| 1778072087 | 8.33° C | 88% | 1013.2 hPa | 0 mm | 1.34 m/s, 18° | - | - |
| 1778071787 | 8.33° C | 88% | 1012.6 hPa | 0 mm | 0.45 m/s, 209° | - | - |
| 1778071487 | 8.33° C | 88% | 1012.7 hPa | 0 mm | 2.68 m/s, 31° | - | - |
| 1778070588 | 8.33° C | 90% | 1012.9 hPa | 0 mm | 0.89 m/s, 224° | - | - |
| 1778069388 | 8.33° C | 91% | 1012.8 hPa | 0 mm | 0.89 m/s, 339° | - | - |
| 1778069088 | 8.33° C | 91% | 1012.7 hPa | 0 mm | 0.45 m/s, 292° | - | - |
| 1778067588 | 7.78° C | 90% | 1012.7 hPa | 0 mm | 0.89 m/s, 111° | - | - |
| 1778067288 | 7.78° C | 91% | 1012.6 hPa | 0 mm | 0.89 m/s, 10° | - | - |
| 1778062487 | 8.33° C | 89% | 1010.9 hPa | 0 mm | 0.45 m/s, 270° | - | - |
| 1778061887 | 8.33° C | 91% | 1010.7 hPa | 0 mm | 0.45 m/s, 263° | - | - |
| 1778061587 | 7.78° C | 92% | 1010.5 hPa | 0 mm | 0 m/s | - | - |
| 1778060987 | 8.33° C | 92% | 1010.4 hPa | 0 mm | 0.45 m/s, 274° | - | - |
| 1778060687 | 8.33° C | 90% | 1010 hPa | 0 mm | 0.45 m/s, 272° | - | - |
| 1778060387 | 8.33° C | 89% | 1010 hPa | 0 mm | 0.45 m/s, 273° | - | - |
| 1778060087 | 8.33° C | 89% | 1010.1 hPa | 0 mm | 0.45 m/s, 303° | - | - |
| 1778059787 | 8.33° C | 91% | 1009.8 hPa | 0 mm | 0.45 m/s, 266° | - | - |
| 1778059487 | 8.33° C | 90% | 1009.8 hPa | 0 mm | 0.45 m/s, 174° | - | - |
| 1778059187 | 8.33° C | 90% | 1009.9 hPa | 0 mm | 0.89 m/s, 65° | - | - |
| 1778058587 | 8.33° C | 90% | 1009.5 hPa | 0 mm | 0 m/s | - | - |
| 1778058287 | 8.33° C | 91% | 1009.6 hPa | 0 mm | 0 m/s | - | - |
* Rain latest hour (hover to see other rain measurements)
** Current wind speed in m/s (hover to see current wind gust speed)